Nancy Foster — WTER — position and weather

sailwx.info

Track history (hours):
 
Tides and Currents Weather Stations Pressure Air Temp Water Temp Dewpoint Dewpoint Depression Visibility Wind Speed Wind Dir Waves Ship Positions

Oceanographic research ship Nancy Foster (USA)

Detailed information on ship capabilities available from University of Delaware's Ocean Information Center.

Last reported at 2017-Jun-24 23:00 UTC. Time now 2017-Jun-27 00:21 UTC.
Position N 32°48' W 079°54'.

Type: Other ship. MMSI: 369912000.

Wind from 200 at 13 knots

Barometer 1015.6 mb
Air temperature 30.3 ° C
Water temperature 29.1 ° C

Date/timePositionNaut miles runAvg speedWind from/ knotsBaromVisibWave heightAir tempDewpointWater temp
2017-Jun-24 23:00N 32°48' W 079°54'0 0.0 200 / 131015.6 30.3 29.1
2017-Jun-24 22:00N 32°48' W 079°54'8 7.8 190 / 121015.4 30.7 29.1
2017-Jun-24 21:00N 32°42' W 079°48'8 7.8 200 / 161015.3 28.3 28.9
2017-Jun-24 20:00N 32°36' W 079°42'5110.9 200 / 161015.7 29.1 28.7
2017-Jun-24 15:22N 32°02' W 080°26'411.4
2017-Jun-24 15:00N 32°00' W 080°31'1111.2
2017-Jun-24 14:00N 31°58' W 080°44'510.3
2017-Jun-24 13:31N 32°01' W 080°48'5 9.3
2017-Jun-24 13:00N 32°02' W 080°54'3 6.9
2017-Jun-24 12:30N 32°04' W 080°57'4 7.5
2017-Jun-24 12:01N 32°06' W 081°01'2 4.0
2017-Jun-24 11:30N 32°05' W 081°03'2 2.9
2017-Jun-24 10:50N 32°05' W 081°06'0 0.0
2017-Jun-24 10:26N 32°05' W 081°06'0 0.0
2017-Jun-24 09:51N 32°05' W 081°06'0 0.0
2017-Jun-24 09:26N 32°05' W 081°06'0 0.0
2017-Jun-24 08:56N 32°05' W 081°06'0 0.0
2017-Jun-24 08:02N 32°05' W 081°06'0 0.0
2017-Jun-24 07:56N 32°05' W 081°06'0 0.0
2017-Jun-24 07:26N 32°05' W 081°06'0 0.0
2017-Jun-24 06:47N 32°05' W 081°06'0 0.0
2017-Jun-24 06:26N 32°05' W 081°06'0 0.0
2017-Jun-24 05:50N 32°05' W 081°06'0 0.0
2017-Jun-24 05:14N 32°05' W 081°06'0 0.0
2017-Jun-24 04:50N 32°05' W 081°06'0 0.0
2017-Jun-24 04:26N 32°05' W 081°06'0 0.0
2017-Jun-24 03:32N 32°05' W 081°06'0 0.1
2017-Jun-24 03:26N 32°05' W 081°06'0 0.0
2017-Jun-24 02:50N 32°05' W 081°06'0 0.0
2017-Jun-24 02:26N 32°05' W 081°06'0 0.0
2017-Jun-24 01:50N 32°05' W 081°06'0 0.0
2017-Jun-24 01:26N 32°05' W 081°06'0 0.0
2017-Jun-24 00:56N 32°05' W 081°06'0 0.0
2017-Jun-24 00:27N 32°05' W 081°06'0 0.0
2017-Jun-23 23:56N 32°05' W 081°06'0 0.0
2017-Jun-23 23:26N 32°05' W 081°06'0 0.0
2017-Jun-23 22:56N 32°05' W 081°06'0 0.0
2017-Jun-23 22:26N 32°05' W 081°06'0 0.0
2017-Jun-23 21:57N 32°05' W 081°06'0 0.0
2017-Jun-23 21:26N 32°05' W 081°06'0 0.0
2017-Jun-23 20:56N 32°05' W 081°06'0 0.0
2017-Jun-23 20:26N 32°05' W 081°06'0 0.0
2017-Jun-23 19:44N 32°05' W 081°06'0 0.0
2017-Jun-23 19:26N 32°05' W 081°06'0 0.0
2017-Jun-23 18:57N 32°05' W 081°06'0 0.0
2017-Jun-23 18:26N 32°05' W 081°06'713.2
2017-Jun-23 17:56N 32°00' W 081°00'737.2 200 / 41014.8 32.6 28.6
2017-Jun-23 17:44N 32°05' W 081°06'0 0.0
2017-Jun-23 17:20N 32°05' W 081°06'0 0.0
2017-Jun-23 16:56N 32°05' W 081°06'7424.4
2017-Jun-23 16:56N 32°00' W 081°00'714.1 250 / 41014.7 31.9 28.7
2017-Jun-23 16:26N 32°05' W 081°06'713.2
2017-Jun-23 15:56N 32°00' W 081°00'737.2 220 / 71014.6 30.4 28.7
2017-Jun-23 15:44N 32°05' W 081°06'0 0.0
2017-Jun-23 15:26N 32°05' W 081°06'0 0.0
2017-Jun-23 14:56N 32°05' W 081°06'7417.1
2017-Jun-23 14:56N 32°00' W 081°00'7 7.1 1014.7 29.9 28.6
2017-Jun-23 13:58N 32°05' W 081°06'7159.8
2017-Jun-23 13:56N 32°00' W 081°00'716.1 230 / 51013.9 29.6 28.6
2017-Jun-23 13:30N 32°05' W 081°05'3 6.6
2017-Jun-23 13:00N 32°05' W 081°02'577.6
2017-Jun-23 12:56N 32°00' W 081°00'512.0 220 / 111016.6 27.3 28.6
2017-Jun-23 12:30N 32°05' W 080°59'510.0
2017-Jun-23 12:00N 32°02' W 080°54'240.4
2017-Jun-23 11:57N 32°00' W 080°54'511.1 210 / 131016.8 27.3 28.6
2017-Jun-23 11:30N 32°01' W 080°48'510.0
2017-Jun-23 11:00N 31°58' W 080°44'469.3
2017-Jun-23 10:57N 31°54' W 080°42'3 7.4 200 / 191015.8 26.9 28.1
2017-Jun-23 10:30N 31°57' W 080°43'2 4.0
2017-Jun-23 09:59N 31°56' W 080°41'5131.4
2017-Jun-23 09:57N 31°54' W 080°36'8 7.9 170 / 121016.0 27.0 27.9
2017-Jun-23 08:57N 31°48' W 080°30'5 6.5 190 / 111016.1 26.9 27.8
2017-Jun-23 08:10N 31°43' W 080°32'2 8.9
2017-Jun-23 07:57N 31°42' W 080°30'1313.0 190 / 171016.7 26.9 27.4
2017-Jun-23 06:57N 31°30' W 080°24'6 6.0 180 / 131017.4 26.9 27.1
2017-Jun-23 05:57N 31°24' W 080°24'6 6.0 180 / 111017.6 27.2 27.3
2017-Jun-23 04:57N 31°30' W 080°24'8 7.9 180 / 151018.5 27.2 27.1
2017-Jun-23 03:57N 31°36' W 080°30'0 0.0 170 / 141018.5 27.3 27.5
2017-Jun-23 02:57N 31°36' W 080°30'5 5.1 170 / 121018.4 27.4 27.4
2017-Jun-23 01:57N 31°36' W 080°36'5 5.2 150 / 91018.2 27.2 27.6
2017-Jun-23 00:58N 31°36' W 080°30'4506.9 160 / 111017.8 27.3 27.4
2017-Jun-23 00:57N 31°37' W 080°34'0 0.0
2017-Jun-22 23:59N 31°37' W 080°34'2 3.3
2017-Jun-22 23:22N 31°39' W 080°36'3 6.1
2017-Jun-22 22:58N 31°36' W 080°36'215.2 150 / 81017.3 27.6 27.6
2017-Jun-22 22:51N 31°37' W 080°35'1 2.0
2017-Jun-22 22:30N 31°38' W 080°35'1 2.0
2017-Jun-22 22:01N 31°37' W 080°34'477.6
2017-Jun-22 21:58N 31°36' W 080°30'510.7 170 / 101016.6 27.3 27.7
2017-Jun-22 21:30N 31°38' W 080°35'2 3.0
2017-Jun-22 20:58N 31°36' W 080°36'0 0.0 160 / 121017.1 27.4 27.9
2017-Jun-22 19:58N 31°36' W 080°36'5 5.1 170 / 101017.3 27.6 27.9
2017-Jun-22 18:58N 31°36' W 080°30'0 0.0 180 / 131017.5 27.5 27.9
2017-Jun-22 17:58N 31°36' W 080°30'0 0.0 190 / 101017.7 27.5 27.8
2017-Jun-22 16:58N 31°36' W 080°30'7 7.1 200 / 121018.6 27.3 27.7
2017-Jun-22 15:59N 31°41' W 080°24'5246.0
2017-Jun-22 15:58N 31°36' W 080°24'813.7 200 / 131019.0 27.2 27.3
2017-Jun-22 15:21N 31°43' W 080°18'614.0
2017-Jun-22 14:58N 31°42' W 080°12'0 0.0 200 / 101019.0 27.3 27.2
2017-Jun-22 13:58N 31°42' W 080°12'0 0.0 180 / 141018.4 27.2 27.2
2017-Jun-22 12:59N 31°42' W 080°12'0 0.0 180 / 101018.3 28.1 27.1
2017-Jun-22 11:59N 31°42' W 080°12'0 0.0 180 / 121016.4 27.1 27.1
2017-Jun-22 10:59N 31°42' W 080°12'0 0.0 180 / 151017.4 26.9 27.1
2017-Jun-22 09:59N 31°42' W 080°12'0 0.0 160 / 101017.6 26.5 27.1
2017-Jun-22 08:59N 31°42' W 080°12'0 0.0 160 / 121017.5 26.6 27.2
2017-Jun-22 07:59N 31°42' W 080°12'1211.8 150 / 131017.6 26.7 27.1
2017-Jun-22 06:59N 31°36' W 080°24'5 5.1 160 / 91018.1 26.8 27.1
2017-Jun-22 05:59N 31°36' W 080°30'0 0.0 170 / 101018.7 27.0 27.3
2017-Jun-22 04:59N 31°36' W 080°30'5 5.1 160 / 91019.7 27.0 27.3
2017-Jun-22 03:59N 31°36' W 080°24'1211.8 170 / 111019.7 26.9 27.1
2017-Jun-22 02:59N 31°42' W 080°12'0 0.0 160 / 111019.8 27.2 27.2
2017-Jun-22 02:00N 31°42' W 080°12'8 7.9 170 / 101019.4 27.1 27.4
2017-Jun-22 01:00N 31°36' W 080°18'0 0.0 150 / 81018.8 27.1 27.2
2017-Jun-22 00:00N 31°36' W 080°18'8 7.9 140 / 111018.1 27.2 27.4
2017-Jun-21 23:00N 31°30' W 080°12'8 7.9 150 / 91017.9 27.0 27.4
2017-Jun-21 22:00N 31°36' W 080°18'0 0.0 110 / 111017.8 27.2 27.6
2017-Jun-21 21:00N 31°36' W 080°18'1313.0 120 / 81017.4 27.7 27.6
2017-Jun-21 20:00N 31°24' W 080°24'12 5.9 120 / 61017.2 27.8 27.5
2017-Jun-21 18:00N 31°18' W 080°36'   130 / 51017.6 27.1 27.1
2017-Jun-17 23:13N 31°23' W 080°52'1 0.5
2017-Jun-17 21:40N 31°23' W 080°51'0 0.9
2017-Jun-17 21:28N 31°23' W 080°51'0 0.8
2017-Jun-17 21:00N 31°23' W 080°52'1 1.7
2017-Jun-17 20:30N 31°23' W 080°53'0 0.2
2017-Jun-17 19:17N 31°23' W 080°52'6 1.1
2017-Jun-17 13:48N 31°18' W 080°48'0 0.0 220 / 91013.6 27.3 27.2
2017-Jun-16 21:49N 31°18' W 080°48'0 0.0 180 / 201011.8 26.1 27.6
2017-Jun-16 20:49N 31°18' W 080°48'0 0.0 200 / 171011.8 26.6 27.5
2017-Jun-16 19:49N 31°18' W 080°48'6 6.0 170 / 131012.3 26.4 27.7
2017-Jun-16 18:49N 31°24' W 080°48'0 0.0 180 / 141012.9 26.4 27.3
2017-Jun-16 17:49N 31°24' W 080°48'6 6.0 200 / 131012.9 26.1 27.1
2017-Jun-16 16:49N 31°18' W 080°48'0 0.0 220 / 81013.2 26.0 27.1
2017-Jun-16 15:49N 31°18' W 080°48'6 6.0 220 / 101013.6 25.8 27.1
2017-Jun-16 14:49N 31°24' W 080°48'6 6.1 240 / 111014.1 25.7 27.1
2017-Jun-16 13:50N 31°18' W 080°48'0 0.0 240 / 131013.8 25.9 27.1
2017-Jun-16 12:50N 31°18' W 080°48'0 0.0 240 / 151014.0 26.1 27.0
2017-Jun-16 11:50N 31°18' W 080°48'0 0.0 200 / 151013.6 27.0
2017-Jun-16 10:50N 31°18' W 080°48'0 0.0 190 / 131012.9 25.6 26.9
2017-Jun-16 09:50N 31°18' W 080°48'0 0.0 200 / 171012.8 26.0 26.9
2017-Jun-16 08:50N 31°18' W 080°48'5 5.1 200 / 121012.5 25.7 26.9
2017-Jun-16 07:50N 31°18' W 080°54'6 6.0 200 / 111012.4 25.9 27.1
2017-Jun-16 06:50N 31°24' W 080°54'6 6.0 210 / 81013.1 25.8 27.1
2017-Jun-16 05:50N 31°18' W 080°54'6 6.0 220 / 71013.7 25.6 27.1
2017-Jun-16 04:50N 31°12' W 080°54'8 7.9 240 / 141014.3 25.6 27.0
2017-Jun-16 03:50N 31°18' W 080°48'0 0.0 250 / 171014.2 26.8 27.0
2017-Jun-16 02:50N 31°18' W 080°48'0 0.0 200 / 91014.1 26.8 27.0
2017-Jun-16 01:50N 31°18' W 080°48'5 5.2 210 / 191014.8 26.6 27.0
2017-Jun-16 00:51N 31°18' W 080°54'3 1.8 200 / 181014.6 27.2 27.1
2017-Jun-15 22:56N 31°21' W 080°53'662.0
2017-Jun-15 22:51N 31°18' W 080°48'711.9 170 / 231013.7 26.6 27.2
2017-Jun-15 22:17N 31°24' W 080°51'3 6.6
2017-Jun-15 21:51N 31°24' W 080°48'42109.0 160 / 171013.9 26.9 27.6
2017-Jun-15 21:50N 31°24' W 080°52'4 3.5
2017-Jun-15 20:51N 31°24' W 080°48'0 0.0 170 / 151014.0 26.7 27.7
2017-Jun-15 19:51N 31°24' W 080°48'0 0.0 170 / 101014.5 27.5 27.8
2017-Jun-15 18:51N 31°24' W 080°48'0 0.0 170 / 61014.9 27.0 27.4
2017-Jun-15 17:51N 31°24' W 080°48'8 7.9 230 / 71015.5 27.4 27.5
2017-Jun-15 16:51N 31°18' W 080°54'8 7.9 230 / 91016.4 27.2 27.1
2017-Jun-15 15:51N 31°24' W 080°48'0 0.0 220 / 91016.4 26.1 27.1
2017-Jun-15 14:51N 31°24' W 080°48'6 6.0 240 / 71016.8 25.9 27.0
2017-Jun-15 13:51N 31°18' W 080°48'0 0.0 250 / 101017.0 25.3 27.0
2017-Jun-15 12:52N 31°18' W 080°48'0 0.0 250 / 101017.0 25.4 27.0
2017-Jun-15 11:52N 31°18' W 080°48'5 5.1 260 / 111016.3 25.7 26.9
2017-Jun-15 10:52N 31°18' W 080°54'0 0.0 230 / 111016.1 25.7 26.9
2017-Jun-15 09:52N 31°18' W 080°54'5 9.8 250 / 121016.1 25.8 27.0
2017-Jun-15 09:23N 31°23' W 080°54'5 8.9
2017-Jun-15 08:52N 31°18' W 080°54'5 5.1 270 / 141015.9 25.7 26.9
2017-Jun-15 07:52N 31°18' W 080°48'0 0.0 260 / 131016.0 25.7 26.9
2017-Jun-15 06:52N 31°18' W 080°48'0 0.0 260 / 131016.2 25.9 26.9
2017-Jun-15 05:52N 31°18' W 080°48'0 0.0 240 / 121016.5 25.5 26.8
2017-Jun-15 04:52N 31°18' W 080°48'5 5.1 260 / 121017.0 25.5 26.8
2017-Jun-15 03:52N 31°18' W 080°54'0 0.0 230 / 121017.0 26.0 26.9
2017-Jun-15 02:52N 31°18' W 080°54'8 7.9 220 / 111017.1 25.9 27.0
2017-Jun-15 01:52N 31°24' W 080°48'0 0.0 230 / 151016.9 26.1 26.9
2017-Jun-15 00:53N 31°24' W 080°48'   200 / 141017.0 26.5 27.1
Track history (hours):
 
Tides and Currents Weather Stations Pressure Air Temp Water Temp Dewpoint Dewpoint Depression Visibility Wind Speed Wind Dir Waves Ship Positions

Oceanographic research ship Nancy Foster (USA)

Detailed information on ship capabilities available from University of Delaware's Ocean Information Center.

Last reported at 2017-Jun-24 23:00 UTC. Time now 2017-Jun-27 00:21 UTC.
Position N 32°48' W 079°54'.

Type: Other ship. MMSI: 369912000.

Wind from 200 at 13 knots

Barometer 1015.6 mb
Air temperature 30.3 ° C
Water temperature 29.1 ° C

Date/timePositionNaut miles runAvg speedWind from/ knotsBaromVisibWave heightAir tempDewpointWater temp
2017-Jun-24 23:00N 32°48' W 079°54'0 0.0 200 / 131015.6 30.3 29.1
2017-Jun-24 22:00N 32°48' W 079°54'8 7.8 190 / 121015.4 30.7 29.1
2017-Jun-24 21:00N 32°42' W 079°48'8 7.8 200 / 161015.3 28.3 28.9
2017-Jun-24 20:00N 32°36' W 079°42'5110.9 200 / 161015.7 29.1 28.7
2017-Jun-24 15:22N 32°02' W 080°26'411.4
2017-Jun-24 15:00N 32°00' W 080°31'1111.2
2017-Jun-24 14:00N 31°58' W 080°44'510.3
2017-Jun-24 13:31N 32°01' W 080°48'5 9.3
2017-Jun-24 13:00N 32°02' W 080°54'3 6.9
2017-Jun-24 12:30N 32°04' W 080°57'4 7.5
2017-Jun-24 12:01N 32°06' W 081°01'2 4.0
2017-Jun-24 11:30N 32°05' W 081°03'2 2.9
2017-Jun-24 10:50N 32°05' W 081°06'0 0.0
2017-Jun-24 10:26N 32°05' W 081°06'0 0.0
2017-Jun-24 09:51N 32°05' W 081°06'0 0.0
2017-Jun-24 09:26N 32°05' W 081°06'0 0.0
2017-Jun-24 08:56N 32°05' W 081°06'0 0.0
2017-Jun-24 08:02N 32°05' W 081°06'0 0.0
2017-Jun-24 07:56N 32°05' W 081°06'0 0.0
2017-Jun-24 07:26N 32°05' W 081°06'0 0.0
2017-Jun-24 06:47N 32°05' W 081°06'0 0.0
2017-Jun-24 06:26N 32°05' W 081°06'0 0.0
2017-Jun-24 05:50N 32°05' W 081°06'0 0.0
2017-Jun-24 05:14N 32°05' W 081°06'0 0.0
2017-Jun-24 04:50N 32°05' W 081°06'0 0.0
2017-Jun-24 04:26N 32°05' W 081°06'0 0.0
2017-Jun-24 03:32N 32°05' W 081°06'0 0.1
2017-Jun-24 03:26N 32°05' W 081°06'0 0.0
2017-Jun-24 02:50N 32°05' W 081°06'0 0.0
2017-Jun-24 02:26N 32°05' W 081°06'0 0.0
2017-Jun-24 01:50N 32°05' W 081°06'0 0.0
2017-Jun-24 01:26N 32°05' W 081°06'0 0.0
2017-Jun-24 00:56N 32°05' W 081°06'0 0.0
2017-Jun-24 00:27N 32°05' W 081°06'0 0.0
2017-Jun-23 23:56N 32°05' W 081°06'0 0.0
2017-Jun-23 23:26N 32°05' W 081°06'0 0.0
2017-Jun-23 22:56N 32°05' W 081°06'0 0.0
2017-Jun-23 22:26N 32°05' W 081°06'0 0.0
2017-Jun-23 21:57N 32°05' W 081°06'0 0.0
2017-Jun-23 21:26N 32°05' W 081°06'0 0.0
2017-Jun-23 20:56N 32°05' W 081°06'0 0.0
2017-Jun-23 20:26N 32°05' W 081°06'0 0.0
2017-Jun-23 19:44N 32°05' W 081°06'0 0.0
2017-Jun-23 19:26N 32°05' W 081°06'0 0.0
2017-Jun-23 18:57N 32°05' W 081°06'0 0.0
2017-Jun-23 18:26N 32°05' W 081°06'713.2
2017-Jun-23 17:56N 32°00' W 081°00'737.2 200 / 41014.8 32.6 28.6
2017-Jun-23 17:44N 32°05' W 081°06'0 0.0
2017-Jun-23 17:20N 32°05' W 081°06'0 0.0
2017-Jun-23 16:56N 32°05' W 081°06'7424.4
2017-Jun-23 16:56N 32°00' W 081°00'714.1 250 / 41014.7 31.9 28.7
2017-Jun-23 16:26N 32°05' W 081°06'713.2
2017-Jun-23 15:56N 32°00' W 081°00'737.2 220 / 71014.6 30.4 28.7
2017-Jun-23 15:44N 32°05' W 081°06'0 0.0
2017-Jun-23 15:26N 32°05' W 081°06'0 0.0
2017-Jun-23 14:56N 32°05' W 081°06'7417.1
2017-Jun-23 14:56N 32°00' W 081°00'7 7.1 1014.7 29.9 28.6
2017-Jun-23 13:58N 32°05' W 081°06'7159.8
2017-Jun-23 13:56N 32°00' W 081°00'716.1 230 / 51013.9 29.6 28.6
2017-Jun-23 13:30N 32°05' W 081°05'3 6.6
2017-Jun-23 13:00N 32°05' W 081°02'577.6
2017-Jun-23 12:56N 32°00' W 081°00'512.0 220 / 111016.6 27.3 28.6
2017-Jun-23 12:30N 32°05' W 080°59'510.0
2017-Jun-23 12:00N 32°02' W 080°54'240.4
2017-Jun-23 11:57N 32°00' W 080°54'511.1 210 / 131016.8 27.3 28.6
2017-Jun-23 11:30N 32°01' W 080°48'510.0
2017-Jun-23 11:00N 31°58' W 080°44'469.3
2017-Jun-23 10:57N 31°54' W 080°42'3 7.4 200 / 191015.8 26.9 28.1
2017-Jun-23 10:30N 31°57' W 080°43'2 4.0
2017-Jun-23 09:59N 31°56' W 080°41'5131.4
2017-Jun-23 09:57N 31°54' W 080°36'8 7.9 170 / 121016.0 27.0 27.9
2017-Jun-23 08:57N 31°48' W 080°30'5 6.5 190 / 111016.1 26.9 27.8
2017-Jun-23 08:10N 31°43' W 080°32'2 8.9
2017-Jun-23 07:57N 31°42' W 080°30'1313.0 190 / 171016.7 26.9 27.4
2017-Jun-23 06:57N 31°30' W 080°24'6 6.0 180 / 131017.4 26.9 27.1
2017-Jun-23 05:57N 31°24' W 080°24'6 6.0 180 / 111017.6 27.2 27.3
2017-Jun-23 04:57N 31°30' W 080°24'8 7.9 180 / 151018.5 27.2 27.1
2017-Jun-23 03:57N 31°36' W 080°30'0 0.0 170 / 141018.5 27.3 27.5
2017-Jun-23 02:57N 31°36' W 080°30'5 5.1 170 / 121018.4 27.4 27.4
2017-Jun-23 01:57N 31°36' W 080°36'5 5.2 150 / 91018.2 27.2 27.6
2017-Jun-23 00:58N 31°36' W 080°30'4506.9 160 / 111017.8 27.3 27.4
2017-Jun-23 00:57N 31°37' W 080°34'0 0.0
2017-Jun-22 23:59N 31°37' W 080°34'2 3.3
2017-Jun-22 23:22N 31°39' W 080°36'3 6.1
2017-Jun-22 22:58N 31°36' W 080°36'215.2 150 / 81017.3 27.6 27.6
2017-Jun-22 22:51N 31°37' W 080°35'1 2.0
2017-Jun-22 22:30N 31°38' W 080°35'1 2.0
2017-Jun-22 22:01N 31°37' W 080°34'477.6
2017-Jun-22 21:58N 31°36' W 080°30'510.7 170 / 101016.6 27.3 27.7
2017-Jun-22 21:30N 31°38' W 080°35'2 3.0
2017-Jun-22 20:58N 31°36' W 080°36'0 0.0 160 / 121017.1 27.4 27.9
2017-Jun-22 19:58N 31°36' W 080°36'5 5.1 170 / 101017.3 27.6 27.9
2017-Jun-22 18:58N 31°36' W 080°30'0 0.0 180 / 131017.5 27.5 27.9
2017-Jun-22 17:58N 31°36' W 080°30'0 0.0 190 / 101017.7 27.5 27.8
2017-Jun-22 16:58N 31°36' W 080°30'7 7.1 200 / 121018.6 27.3 27.7
2017-Jun-22 15:59N 31°41' W 080°24'5246.0
2017-Jun-22 15:58N 31°36' W 080°24'813.7 200 / 131019.0 27.2 27.3
2017-Jun-22 15:21N 31°43' W 080°18'614.0
2017-Jun-22 14:58N 31°42' W 080°12'0 0.0 200 / 101019.0 27.3 27.2
2017-Jun-22 13:58N 31°42' W 080°12'0 0.0 180 / 141018.4 27.2 27.2
2017-Jun-22 12:59N 31°42' W 080°12'0 0.0 180 / 101018.3 28.1 27.1
2017-Jun-22 11:59N 31°42' W 080°12'0 0.0 180 / 121016.4 27.1 27.1
2017-Jun-22 10:59N 31°42' W 080°12'0 0.0 180 / 151017.4 26.9 27.1
2017-Jun-22 09:59N 31°42' W 080°12'0 0.0 160 / 101017.6 26.5 27.1
2017-Jun-22 08:59N 31°42' W 080°12'0 0.0 160 / 121017.5 26.6 27.2
2017-Jun-22 07:59N 31°42' W 080°12'1211.8 150 / 131017.6 26.7 27.1
2017-Jun-22 06:59N 31°36' W 080°24'5 5.1 160 / 91018.1 26.8 27.1
2017-Jun-22 05:59N 31°36' W 080°30'0 0.0 170 / 101018.7 27.0 27.3
2017-Jun-22 04:59N 31°36' W 080°30'5 5.1 160 / 91019.7 27.0 27.3
2017-Jun-22 03:59N 31°36' W 080°24'1211.8 170 / 111019.7 26.9 27.1
2017-Jun-22 02:59N 31°42' W 080°12'0 0.0 160 / 111019.8 27.2 27.2
2017-Jun-22 02:00N 31°42' W 080°12'8 7.9 170 / 101019.4 27.1 27.4
2017-Jun-22 01:00N 31°36' W 080°18'0 0.0 150 / 81018.8 27.1 27.2
2017-Jun-22 00:00N 31°36' W 080°18'8 7.9 140 / 111018.1 27.2 27.4
2017-Jun-21 23:00N 31°30' W 080°12'8 7.9 150 / 91017.9 27.0 27.4
2017-Jun-21 22:00N 31°36' W 080°18'0 0.0 110 / 111017.8 27.2 27.6
2017-Jun-21 21:00N 31°36' W 080°18'1313.0 120 / 81017.4 27.7 27.6
2017-Jun-21 20:00N 31°24' W 080°24'12 5.9 120 / 61017.2 27.8 27.5
2017-Jun-21 18:00N 31°18' W 080°36'   130 / 51017.6 27.1 27.1
2017-Jun-17 23:13N 31°23' W 080°52'1 0.5
2017-Jun-17 21:40N 31°23' W 080°51'0 0.9
2017-Jun-17 21:28N 31°23' W 080°51'0 0.8
2017-Jun-17 21:00N 31°23' W 080°52'1 1.7
2017-Jun-17 20:30N 31°23' W 080°53'0 0.2
2017-Jun-17 19:17N 31°23' W 080°52'6 1.1
2017-Jun-17 13:48N 31°18' W 080°48'0 0.0 220 / 91013.6 27.3 27.2
2017-Jun-16 21:49N 31°18' W 080°48'0 0.0 180 / 201011.8 26.1 27.6
2017-Jun-16 20:49N 31°18' W 080°48'0 0.0 200 / 171011.8 26.6 27.5
2017-Jun-16 19:49N 31°18' W 080°48'6 6.0 170 / 131012.3 26.4 27.7
2017-Jun-16 18:49N 31°24' W 080°48'0 0.0 180 / 141012.9 26.4 27.3
2017-Jun-16 17:49N 31°24' W 080°48'6 6.0 200 / 131012.9 26.1 27.1
2017-Jun-16 16:49N 31°18' W 080°48'0 0.0 220 / 81013.2 26.0 27.1
2017-Jun-16 15:49N 31°18' W 080°48'6 6.0 220 / 101013.6 25.8 27.1
2017-Jun-16 14:49N 31°24' W 080°48'6 6.1 240 / 111014.1 25.7 27.1
2017-Jun-16 13:50N 31°18' W 080°48'0 0.0 240 / 131013.8 25.9 27.1
2017-Jun-16 12:50N 31°18' W 080°48'0 0.0 240 / 151014.0 26.1 27.0
2017-Jun-16 11:50N 31°18' W 080°48'0 0.0 200 / 151013.6 27.0
2017-Jun-16 10:50N 31°18' W 080°48'0 0.0 190 / 131012.9 25.6 26.9
2017-Jun-16 09:50N 31°18' W 080°48'0 0.0 200 / 171012.8 26.0 26.9
2017-Jun-16 08:50N 31°18' W 080°48'5 5.1 200 / 121012.5 25.7 26.9
2017-Jun-16 07:50N 31°18' W 080°54'6 6.0 200 / 111012.4 25.9 27.1
2017-Jun-16 06:50N 31°24' W 080°54'6 6.0 210 / 81013.1 25.8 27.1
2017-Jun-16 05:50N 31°18' W 080°54'6 6.0 220 / 71013.7 25.6 27.1
2017-Jun-16 04:50N 31°12' W 080°54'8 7.9 240 / 141014.3 25.6 27.0
2017-Jun-16 03:50N 31°18' W 080°48'0 0.0 250 / 171014.2 26.8 27.0
2017-Jun-16 02:50N 31°18' W 080°48'0 0.0 200 / 91014.1 26.8 27.0
2017-Jun-16 01:50N 31°18' W 080°48'5 5.2 210 / 191014.8 26.6 27.0
2017-Jun-16 00:51N 31°18' W 080°54'3 1.8 200 / 181014.6 27.2 27.1
2017-Jun-15 22:56N 31°21' W 080°53'662.0
2017-Jun-15 22:51N 31°18' W 080°48'711.9 170 / 231013.7 26.6 27.2
2017-Jun-15 22:17N 31°24' W 080°51'3 6.6
2017-Jun-15 21:51N 31°24' W 080°48'42109.0 160 / 171013.9 26.9 27.6
2017-Jun-15 21:50N 31°24' W 080°52'4 3.5
2017-Jun-15 20:51N 31°24' W 080°48'0 0.0 170 / 151014.0 26.7 27.7
2017-Jun-15 19:51N 31°24' W 080°48'0 0.0 170 / 101014.5 27.5 27.8
2017-Jun-15 18:51N 31°24' W 080°48'0 0.0 170 / 61014.9 27.0 27.4
2017-Jun-15 17:51N 31°24' W 080°48'8 7.9 230 / 71015.5 27.4 27.5
2017-Jun-15 16:51N 31°18' W 080°54'8 7.9 230 / 91016.4 27.2 27.1
2017-Jun-15 15:51N 31°24' W 080°48'0 0.0 220 / 91016.4 26.1 27.1
2017-Jun-15 14:51N 31°24' W 080°48'6 6.0 240 / 71016.8 25.9 27.0
2017-Jun-15 13:51N 31°18' W 080°48'0 0.0 250 / 101017.0 25.3 27.0
2017-Jun-15 12:52N 31°18' W 080°48'0 0.0 250 / 101017.0 25.4 27.0
2017-Jun-15 11:52N 31°18' W 080°48'5 5.1 260 / 111016.3 25.7 26.9
2017-Jun-15 10:52N 31°18' W 080°54'0 0.0 230 / 111016.1 25.7 26.9
2017-Jun-15 09:52N 31°18' W 080°54'5 9.8 250 / 121016.1 25.8 27.0
2017-Jun-15 09:23N 31°23' W 080°54'5 8.9
2017-Jun-15 08:52N 31°18' W 080°54'5 5.1 270 / 141015.9 25.7 26.9
2017-Jun-15 07:52N 31°18' W 080°48'0 0.0 260 / 131016.0 25.7 26.9
2017-Jun-15 06:52N 31°18' W 080°48'0 0.0 260 / 131016.2 25.9 26.9
2017-Jun-15 05:52N 31°18' W 080°48'0 0.0 240 / 121016.5 25.5 26.8
2017-Jun-15 04:52N 31°18' W 080°48'5 5.1 260 / 121017.0 25.5 26.8
2017-Jun-15 03:52N 31°18' W 080°54'0 0.0 230 / 121017.0 26.0 26.9
2017-Jun-15 02:52N 31°18' W 080°54'8 7.9 220 / 111017.1 25.9 27.0
2017-Jun-15 01:52N 31°24' W 080°48'0 0.0 230 / 151016.9 26.1 26.9
2017-Jun-15 00:53N 31°24' W 080°48'   200 / 141017.0 26.5 27.1

Dump ship's entire track history